createdAt,value
2019-01-29T00:02:12.856Z,-0.53
2019-01-29T00:04:43.004Z,-0.54
2019-01-29T00:07:13.175Z,-0.50
2019-01-29T00:09:43.363Z,-0.49
2019-01-29T00:12:13.554Z,-0.58
2019-01-29T00:14:43.694Z,-0.66
2019-01-29T00:17:13.954Z,-0.64
2019-01-29T00:19:44.142Z,-0.64
2019-01-29T00:22:14.389Z,-0.69
2019-01-29T00:24:44.524Z,-0.71
2019-01-29T00:27:14.971Z,-0.72
2019-01-29T00:29:45.147Z,-0.71
2019-01-29T00:32:15.657Z,-0.65
2019-01-29T00:34:46.181Z,-0.59
2019-01-29T00:37:16.436Z,-0.55
2019-01-29T00:39:46.676Z,-0.51
2019-01-29T00:42:17.109Z,-0.47
2019-01-29T00:44:47.226Z,-0.42
2019-01-29T00:47:17.451Z,-0.48
2019-01-29T00:49:47.601Z,-0.44
2019-01-29T00:52:18.241Z,-0.48
2019-01-29T00:54:49.679Z,-0.53
2019-01-29T00:57:20.010Z,-0.53
2019-01-29T00:59:50.264Z,-0.48
2019-01-29T01:02:20.520Z,-0.40
2019-01-29T01:04:50.765Z,-0.34
2019-01-29T01:07:20.979Z,-0.28
2019-01-29T01:09:57.068Z,-0.31
2019-01-29T01:12:23.400Z,-0.34
2019-01-29T01:14:53.524Z,-0.38
2019-01-29T01:17:23.850Z,-0.48
2019-01-29T01:19:54.606Z,-0.57
2019-01-29T01:22:34.226Z,-0.66
2019-01-29T01:25:05.087Z,-0.76
2019-01-29T01:27:35.451Z,-0.86
2019-01-29T01:30:07.161Z,-0.91
2019-01-29T01:32:37.519Z,-0.88
2019-01-29T01:35:08.626Z,-0.81
2019-01-29T01:37:38.792Z,-0.79
2019-01-29T01:40:21.805Z,-0.78
2019-01-29T01:42:51.965Z,-0.80
2019-01-29T01:45:22.097Z,-0.77
2019-01-29T01:47:52.415Z,-0.69
2019-01-29T01:50:22.551Z,-0.61
2019-01-29T01:52:59.088Z,-0.52
2019-01-29T01:55:24.724Z,-0.53
2019-01-29T01:57:55.104Z,-0.49
2019-01-29T02:00:25.410Z,-0.47
2019-01-29T02:02:55.599Z,-0.45
2019-01-29T02:05:25.861Z,-0.45
2019-01-29T02:07:55.990Z,-0.42
2019-01-29T02:10:28.741Z,-0.41
2019-01-29T02:12:59.104Z,-0.39
2019-01-29T02:15:29.304Z,-0.38
2019-01-29T02:18:00.651Z,-0.35
2019-01-29T02:20:30.984Z,-0.27
2019-01-29T02:23:07.778Z,-0.19
2019-01-29T02:25:33.481Z,-0.17
2019-01-29T02:28:03.989Z,-0.11
2019-01-29T02:30:34.291Z,-0.05
2019-01-29T02:33:04.601Z,-0.03
2019-01-29T02:35:34.670Z,0.00
2019-01-29T02:38:04.924Z,0.04
2019-01-29T02:40:35.410Z,0.14
2019-01-29T02:43:05.586Z,0.18
2019-01-29T02:45:35.871Z,0.20
2019-01-29T02:48:06.585Z,0.22
2019-01-29T02:50:36.933Z,0.26
2019-01-29T02:53:17.830Z,0.28
2019-01-29T02:55:40.152Z,0.29
2019-01-29T02:58:10.479Z,0.29
2019-01-29T03:00:40.662Z,0.30
2019-01-29T03:03:10.915Z,0.31
2019-01-29T03:05:41.034Z,0.32
2019-01-29T03:08:12.363Z,0.31
2019-01-29T03:10:42.621Z,0.33
2019-01-29T03:13:12.795Z,0.32
2019-01-29T03:15:43.017Z,0.34
2019-01-29T03:18:13.233Z,0.36
2019-01-29T03:20:43.570Z,0.36
2019-01-29T03:23:13.749Z,0.35
2019-01-29T03:25:46.814Z,0.35
2019-01-29T03:28:16.935Z,0.36
2019-01-29T03:30:47.090Z,0.39
2019-01-29T03:33:17.402Z,0.38
2019-01-29T03:35:47.988Z,0.41
2019-01-29T03:38:18.337Z,0.43
2019-01-29T03:40:48.633Z,0.44
2019-01-29T03:43:18.929Z,0.43
2019-01-29T03:45:49.229Z,0.46
2019-01-29T03:48:19.578Z,0.45
2019-01-29T03:50:50.130Z,0.44
2019-01-29T03:53:20.368Z,0.45
2019-01-29T03:55:50.865Z,0.46
2019-01-29T03:58:21.065Z,0.43
2019-01-29T04:00:51.233Z,0.40
2019-01-29T04:03:21.385Z,0.38
2019-01-29T04:05:51.479Z,0.44
2019-01-29T04:08:21.834Z,0.47
2019-01-29T04:10:52.125Z,0.46
2019-01-29T04:13:22.245Z,0.40
2019-01-29T04:15:52.466Z,0.35
2019-01-29T04:18:23.807Z,0.33
2019-01-29T04:20:53.920Z,0.30
2019-01-29T04:23:25.015Z,0.28
2019-01-29T04:25:55.278Z,0.20
2019-01-29T04:28:25.421Z,0.11
2019-01-29T04:30:56.476Z,0.04
2019-01-29T04:33:26.766Z,-0.02
2019-01-29T04:35:57.044Z,-0.08
2019-01-29T04:38:27.160Z,-0.14
2019-01-29T04:40:57.300Z,-0.14
2019-01-29T04:43:27.557Z,-0.24
2019-01-29T04:45:57.880Z,-0.14
2019-01-29T04:48:28.115Z,-0.17
2019-01-29T04:50:58.232Z,-0.17
2019-01-29T04:53:28.475Z,-0.17
2019-01-29T04:55:58.607Z,-0.13
2019-01-29T04:58:28.860Z,-0.11
2019-01-29T05:00:59.091Z,-0.10
2019-01-29T05:03:29.195Z,-0.09
2019-01-29T05:05:59.379Z,-0.08
2019-01-29T05:08:29.720Z,-0.09
2019-01-29T05:10:59.976Z,-0.06
2019-01-29T05:13:30.105Z,-0.08
2019-01-29T05:16:00.295Z,-0.05
2019-01-29T05:18:32.148Z,-0.06
2019-01-29T05:21:02.564Z,-0.06
2019-01-29T05:23:32.810Z,-0.05
2019-01-29T05:26:03.089Z,-0.08
2019-01-29T05:28:33.258Z,-0.04
2019-01-29T05:31:04.791Z,-0.06
2019-01-29T05:33:35.231Z,-0.04
2019-01-29T05:36:05.855Z,0.00
2019-01-29T05:38:35.947Z,0.00
2019-01-29T05:41:06.167Z,-0.01
2019-01-29T05:43:36.265Z,-0.03
2019-01-29T05:46:06.660Z,0.00
2019-01-29T05:48:36.846Z,0.03
2019-01-29T05:51:07.052Z,0.04
2019-01-29T05:53:37.714Z,0.02
2019-01-29T05:56:08.116Z,-0.08
2019-01-29T05:58:38.463Z,0.02
2019-01-29T06:01:09.116Z,-0.02
2019-01-29T06:03:39.891Z,0.04
2019-01-29T06:06:10.129Z,0.08
2019-01-29T06:08:40.382Z,0.13
2019-01-29T06:11:10.901Z,0.11
2019-01-29T06:13:41.649Z,0.18
2019-01-29T06:16:11.987Z,0.21
2019-01-29T06:18:42.696Z,0.23
2019-01-29T06:21:12.980Z,0.24
2019-01-29T06:23:43.123Z,0.28
2019-01-29T06:26:16.294Z,0.31
2019-01-29T06:28:46.475Z,0.35
2019-01-29T06:31:16.904Z,0.39
2019-01-29T06:33:47.090Z,0.39
2019-01-29T06:36:17.225Z,0.32
2019-01-29T06:38:47.444Z,0.30
2019-01-29T06:41:17.777Z,0.24
2019-01-29T06:43:48.003Z,0.20
2019-01-29T06:46:18.241Z,0.19
2019-01-29T06:48:48.962Z,0.09
2019-01-29T06:51:21.125Z,0.19
2019-01-29T06:53:51.635Z,0.24
2019-01-29T06:56:22.153Z,0.30
2019-01-29T06:58:52.435Z,0.24
2019-01-29T07:01:22.936Z,0.23
2019-01-29T07:03:53.344Z,0.19
2019-01-29T07:06:23.511Z,0.12
2019-01-29T07:08:53.801Z,0.19
2019-01-29T07:11:24.137Z,0.09
2019-01-29T07:13:54.284Z,-0.02
2019-01-29T07:16:38.542Z,0.11
2019-01-29T07:19:14.758Z,0.18
2019-01-29T07:21:45.066Z,0.24
2019-01-29T07:24:15.380Z,0.28
2019-01-29T07:26:45.535Z,0.30
2019-01-29T07:29:15.646Z,0.35
2019-01-29T07:31:45.965Z,0.34
2019-01-29T07:34:16.229Z,0.45
2019-01-29T07:36:46.436Z,0.52
2019-01-29T07:39:16.597Z,0.54
2019-01-29T07:41:46.870Z,0.54
2019-01-29T07:44:17.081Z,0.50
2019-01-29T07:46:47.329Z,0.49
2019-01-29T07:49:17.641Z,0.50
2019-01-29T07:51:48.254Z,0.62
2019-01-29T07:54:18.497Z,0.59
2019-01-29T07:56:49.081Z,0.55
2019-01-29T07:59:32.522Z,0.68
2019-01-29T08:01:51.345Z,0.63
2019-01-29T08:04:21.448Z,0.65
2019-01-29T08:06:51.686Z,0.74
2019-01-29T08:09:21.937Z,0.81
2019-01-29T08:11:52.189Z,0.98
2019-01-29T08:14:22.340Z,1.13
2019-01-29T08:16:52.461Z,1.04
2019-01-29T08:19:22.632Z,1.08
2019-01-29T08:21:52.756Z,1.25
2019-01-29T08:24:23.003Z,1.44
2019-01-29T08:26:53.325Z,1.58
2019-01-29T08:29:23.662Z,1.66
2019-01-29T08:31:53.834Z,1.59
2019-01-29T08:34:24.414Z,1.75
2019-01-29T08:36:54.735Z,1.90
2019-01-29T08:39:25.068Z,2.04
2019-01-29T08:41:55.497Z,2.15
2019-01-29T08:44:26.205Z,2.10
2019-01-29T08:46:56.797Z,2.04
2019-01-29T08:49:29.499Z,2.00
2019-01-29T08:52:00.115Z,2.26
2019-01-29T08:54:30.411Z,2.42
2019-01-29T08:57:01.081Z,2.48
2019-01-29T08:59:31.715Z,2.57
2019-01-29T09:02:01.981Z,2.67
2019-01-29T09:04:35.465Z,2.75
2019-01-29T09:07:06.052Z,2.77
2019-01-29T09:09:36.549Z,2.93
2019-01-29T09:12:06.968Z,2.86
2019-01-29T09:14:40.600Z,2.81
2019-01-29T09:17:11.059Z,2.90
2019-01-29T09:19:41.687Z,2.91
2019-01-29T09:22:12.339Z,3.02
2019-01-29T09:24:43.257Z,3.02
2019-01-29T09:27:13.689Z,2.94
2019-01-29T09:29:43.942Z,2.98
2019-01-29T09:32:14.563Z,2.99
2019-01-29T09:34:45.138Z,3.02
2019-01-29T09:37:15.452Z,3.08
2019-01-29T09:39:47.326Z,3.11
2019-01-29T09:42:18.948Z,3.22
2019-01-29T09:44:49.710Z,3.23
2019-01-29T09:47:20.058Z,3.25
2019-01-29T09:49:50.519Z,3.24
2019-01-29T09:52:21.150Z,3.26
2019-01-29T09:54:51.488Z,3.19
2019-01-29T09:57:21.700Z,3.16
2019-01-29T09:59:51.939Z,3.37
2019-01-29T10:02:22.058Z,3.42
2019-01-29T10:04:52.285Z,3.57
2019-01-29T10:07:22.520Z,3.66
2019-01-29T10:09:52.966Z,3.68
2019-01-29T10:12:23.531Z,3.58
2019-01-29T10:14:53.938Z,3.73
2019-01-29T10:17:24.374Z,3.76
2019-01-29T10:20:02.299Z,3.69
2019-01-29T10:22:26.601Z,3.86
2019-01-29T10:24:56.833Z,3.77
2019-01-29T10:27:27.238Z,3.85
2019-01-29T10:29:57.366Z,4.00
2019-01-29T10:32:27.736Z,4.03
2019-01-29T10:34:57.966Z,4.22
2019-01-29T10:37:28.477Z,4.28
2019-01-29T10:39:58.914Z,4.41
2019-01-29T10:42:29.348Z,4.56
2019-01-29T10:44:59.560Z,4.55
2019-01-29T10:47:29.717Z,4.63
2019-01-29T10:50:00.315Z,4.63
2019-01-29T10:52:30.967Z,4.78
2019-01-29T10:55:01.218Z,4.87
2019-01-29T10:57:31.483Z,4.95
2019-01-29T11:00:02.199Z,5.01
2019-01-29T11:02:34.031Z,5.02
2019-01-29T11:05:05.003Z,5.08
2019-01-29T11:07:35.363Z,5.13
2019-01-29T11:10:08.417Z,4.97
2019-01-29T11:12:41.646Z,5.00
2019-01-29T11:15:26.218Z,4.61
2019-01-29T11:17:56.158Z,4.74
2019-01-29T11:20:26.753Z,4.75
2019-01-29T11:22:56.971Z,4.93
2019-01-29T11:25:28.461Z,4.85
2019-01-29T11:27:58.897Z,5.05
2019-01-29T11:30:30.062Z,4.99
2019-01-29T11:33:00.449Z,5.00
2019-01-29T11:35:32.227Z,5.16
2019-01-29T11:38:02.684Z,5.19
2019-01-29T11:40:33.593Z,5.39
2019-01-29T11:43:04.788Z,5.47
2019-01-29T11:45:47.407Z,5.80
2019-01-29T11:48:18.126Z,5.90
2019-01-29T11:50:48.746Z,5.64
2019-01-29T11:53:19.237Z,5.76
2019-01-29T11:55:49.709Z,6.28
2019-01-29T11:58:20.212Z,6.54
2019-01-29T12:01:07.939Z,6.79
2019-01-29T12:03:38.232Z,6.81
2019-01-29T12:06:09.079Z,7.01
2019-01-29T12:08:39.396Z,6.49
2019-01-29T12:11:09.552Z,6.23
2019-01-29T12:13:39.888Z,6.44
2019-01-29T12:16:10.203Z,6.68
2019-01-29T12:18:40.688Z,6.75
2019-01-29T12:29:45.108Z,6.86
2019-01-29T12:32:15.453Z,6.64
2019-01-29T12:34:45.808Z,6.66
2019-01-29T12:37:16.446Z,6.86
2019-01-29T12:39:47.062Z,6.90
2019-01-29T12:42:17.389Z,5.97
2019-01-29T12:44:47.608Z,6.07
2019-01-29T12:47:17.781Z,5.85
2019-01-29T12:49:48.081Z,6.44
2019-01-29T12:52:37.923Z,6.75
2019-01-29T12:55:09.608Z,7.49
2019-01-29T12:57:42.152Z,8.16
2019-01-29T13:00:15.073Z,8.69
2019-01-29T13:02:45.342Z,9.30
2019-01-29T13:05:15.486Z,10.64
2019-01-29T13:07:45.791Z,11.06
2019-01-29T13:10:18.833Z,10.62
2019-01-29T13:12:49.440Z,9.96
2019-01-29T13:15:22.699Z,9.95
2019-01-29T13:17:53.163Z,10.03
2019-01-29T13:20:23.675Z,9.24
2019-01-29T13:22:54.421Z,9.24
2019-01-29T13:25:24.818Z,8.80
2019-01-29T13:27:56.079Z,9.67
2019-01-29T13:30:32.136Z,10.32
2019-01-29T13:33:02.758Z,9.54
2019-01-29T13:35:36.553Z,10.46
2019-01-29T13:38:07.643Z,10.71
2019-01-29T13:40:37.932Z,10.83
2019-01-29T13:43:08.682Z,10.28
2019-01-29T13:45:39.288Z,9.42
2019-01-29T13:48:09.824Z,9.72
2019-01-29T13:50:48.272Z,10.53
2019-01-29T13:53:18.554Z,11.64
2019-01-29T13:55:48.788Z,11.24
2019-01-29T13:58:19.063Z,11.11
2019-01-29T14:00:49.547Z,10.68
2019-01-29T14:03:20.114Z,10.27
2019-01-29T14:05:50.654Z,10.34
2019-01-29T14:08:21.059Z,10.19
2019-01-29T14:10:51.507Z,9.90
2019-01-29T14:13:22.020Z,9.79
2019-01-29T14:15:56.733Z,9.36
2019-01-29T14:18:29.162Z,9.09
2019-01-29T14:21:01.161Z,8.80
2019-01-29T14:23:34.473Z,8.78
2019-01-29T14:26:05.241Z,8.49
2019-01-29T14:28:36.568Z,8.40
2019-01-29T14:31:07.588Z,8.23
2019-01-29T14:33:38.145Z,8.05
2019-01-29T14:36:16.643Z,7.77
2019-01-29T14:39:11.673Z,7.73
2019-01-29T14:41:41.954Z,7.71
2019-01-29T14:44:21.142Z,7.49
2019-01-29T14:46:51.650Z,7.48
2019-01-29T14:49:22.127Z,7.37
2019-01-29T14:51:57.775Z,6.77
2019-01-29T14:54:27.333Z,6.81
2019-01-29T14:56:57.620Z,7.11
2019-01-29T14:59:29.105Z,7.03
2019-01-29T15:01:59.639Z,6.45
2019-01-29T15:04:30.236Z,6.46
2019-01-29T15:07:00.637Z,6.26
2019-01-29T15:09:30.947Z,5.80
2019-01-29T15:12:01.771Z,5.71
2019-01-29T15:14:32.091Z,5.52
2019-01-29T15:17:20.304Z,5.56
2019-01-29T15:19:52.813Z,5.43
2019-01-29T15:22:23.401Z,5.36
2019-01-29T15:24:53.557Z,4.90
2019-01-29T15:27:25.271Z,4.87
2019-01-29T15:29:55.512Z,5.09
2019-01-29T15:32:25.982Z,5.09
2019-01-29T15:34:56.599Z,5.39
2019-01-29T15:37:27.015Z,5.33
2019-01-29T15:39:57.302Z,5.13
2019-01-29T15:42:29.359Z,4.45
2019-01-29T15:44:59.579Z,4.58
2019-01-29T15:47:29.995Z,4.30
2019-01-29T15:50:00.310Z,4.33
2019-01-29T15:52:30.515Z,4.04
2019-01-29T15:55:00.749Z,3.97
2019-01-29T15:57:30.939Z,4.02
2019-01-29T16:00:01.531Z,3.98
2019-01-29T16:02:32.242Z,3.80
2019-01-29T16:05:03.168Z,3.59
2019-01-29T16:07:35.216Z,3.48
2019-01-29T16:10:07.448Z,3.26
2019-01-29T16:12:41.314Z,3.12
2019-01-29T16:15:15.551Z,3.10
2019-01-29T16:17:45.973Z,2.92
2019-01-29T16:20:18.260Z,2.80
2019-01-29T16:22:49.328Z,2.76
2019-01-29T16:25:21.082Z,2.51
2019-01-29T16:27:51.546Z,2.53
2019-01-29T16:30:25.996Z,2.46
2019-01-29T16:32:56.683Z,2.35
2019-01-29T16:35:30.601Z,2.27
2019-01-29T16:38:01.371Z,2.23
2019-01-29T16:40:32.464Z,2.14
2019-01-29T16:43:02.794Z,2.09
2019-01-29T16:45:34.521Z,2.01
2019-01-29T16:48:05.600Z,1.92
2019-01-29T16:50:36.168Z,1.86
2019-01-29T16:53:07.299Z,1.79
2019-01-29T16:55:37.608Z,1.61
2019-01-29T16:58:08.798Z,1.53
2019-01-29T17:00:39.803Z,1.42
2019-01-29T17:03:10.168Z,1.15
2019-01-29T17:05:40.879Z,1.20
2019-01-29T17:08:12.097Z,1.22
2019-01-29T17:10:43.073Z,1.13
2019-01-29T17:13:13.628Z,1.05
2019-01-29T17:15:44.135Z,0.76
2019-01-29T17:18:14.464Z,0.86
2019-01-29T17:20:45.421Z,0.83
2019-01-29T17:23:16.353Z,0.81
2019-01-29T17:25:46.665Z,0.79
2019-01-29T17:28:16.953Z,0.69
2019-01-29T17:30:47.859Z,0.61
2019-01-29T17:33:18.817Z,0.54
2019-01-29T17:35:49.318Z,0.47
2019-01-29T17:38:19.619Z,0.41
2019-01-29T17:40:49.995Z,0.35
2019-01-29T17:43:20.342Z,0.30
2019-01-29T17:45:51.274Z,0.28
2019-01-29T17:48:22.205Z,0.15
2019-01-29T17:50:52.675Z,0.04
2019-01-29T17:53:23.123Z,-0.03
2019-01-29T17:55:53.779Z,-0.11
2019-01-29T17:58:27.231Z,-0.16
2019-01-29T18:01:00.446Z,-0.25
2019-01-29T18:03:31.046Z,-0.28
2019-01-29T18:06:01.400Z,-0.34
2019-01-29T18:08:31.950Z,-0.47
2019-01-29T18:11:02.578Z,-0.50
2019-01-29T18:13:33.145Z,-0.55
2019-01-29T18:16:03.591Z,-0.61
2019-01-29T18:18:34.272Z,-0.70
2019-01-29T18:21:04.777Z,-0.74
2019-01-29T18:23:35.414Z,-0.74
2019-01-29T18:26:06.012Z,-0.84
2019-01-29T18:28:36.497Z,-0.90
2019-01-29T18:31:07.066Z,-0.92
2019-01-29T18:33:38.165Z,-0.97
2019-01-29T18:36:08.849Z,-1.01
2019-01-29T18:38:39.253Z,-1.09
2019-01-29T18:41:10.550Z,-1.14
2019-01-29T18:43:41.335Z,-1.16
2019-01-29T18:46:11.645Z,-1.24
2019-01-29T18:48:41.935Z,-1.29
2019-01-29T18:51:12.191Z,-1.37
2019-01-29T18:53:42.633Z,-1.41
2019-01-29T18:56:13.253Z,-1.44
2019-01-29T18:58:44.198Z,-1.49
2019-01-29T19:01:14.715Z,-1.55
2019-01-29T19:03:45.114Z,-1.59
2019-01-29T19:06:15.764Z,-1.68
2019-01-29T19:08:46.185Z,-1.73
2019-01-29T19:11:16.520Z,-1.78
2019-01-29T19:13:46.773Z,-1.82
2019-01-29T19:16:17.468Z,-1.87
2019-01-29T19:18:48.037Z,-1.84
2019-01-29T19:21:18.414Z,-1.92
2019-01-29T19:23:49.175Z,-2.00
2019-01-29T19:26:19.735Z,-2.05
2019-01-29T19:28:50.016Z,-2.07
2019-01-29T19:31:20.713Z,-2.09
2019-01-29T19:33:51.351Z,-2.11
2019-01-29T19:36:21.880Z,-2.21
2019-01-29T19:38:52.597Z,-2.20
2019-01-29T19:41:23.140Z,-2.17
2019-01-29T19:43:53.753Z,-2.27
2019-01-29T19:46:24.258Z,-2.32
2019-01-29T19:48:56.457Z,-2.33
2019-01-29T19:51:27.300Z,-2.33
2019-01-29T19:53:57.723Z,-2.34
2019-01-29T19:56:29.644Z,-2.48
2019-01-29T19:59:00.180Z,-2.48
2019-01-29T20:01:30.979Z,-2.56
2019-01-29T20:04:03.083Z,-2.58
2019-01-29T20:06:33.777Z,-2.59
2019-01-29T20:09:07.455Z,-2.59
2019-01-29T20:11:38.011Z,-2.61
2019-01-29T20:14:08.832Z,-2.66
2019-01-29T20:16:39.737Z,-2.70
2019-01-29T20:19:10.151Z,-2.74
2019-01-29T20:21:40.691Z,-2.75
2019-01-29T20:24:11.321Z,-2.79
2019-01-29T20:26:41.744Z,-2.84
2019-01-29T20:29:12.170Z,-2.82
2019-01-29T20:31:42.837Z,-2.99
2019-01-29T20:34:13.314Z,-3.01
2019-01-29T20:36:46.124Z,-2.99
2019-01-29T20:39:15.808Z,-3.04
2019-01-29T20:41:46.251Z,-3.06
2019-01-29T20:44:16.990Z,-3.10
2019-01-29T20:46:47.476Z,-3.13
2019-01-29T20:49:18.995Z,-3.08
2019-01-29T20:51:49.770Z,-3.14
2019-01-29T20:54:20.249Z,-3.18
2019-01-29T20:56:51.111Z,-3.21
2019-01-29T20:59:21.642Z,-3.25
2019-01-29T21:01:52.231Z,-3.24
2019-01-29T21:04:23.173Z,-3.29
2019-01-29T21:06:56.032Z,-3.27
2019-01-29T21:09:26.832Z,-3.28
2019-01-29T21:11:57.235Z,-3.31
2019-01-29T21:14:27.539Z,-3.35
2019-01-29T21:16:57.993Z,-3.35
2019-01-29T21:19:28.671Z,-3.36
2019-01-29T21:21:59.394Z,-3.38
2019-01-29T21:24:30.114Z,-3.43
2019-01-29T21:27:00.613Z,-3.44
2019-01-29T21:29:31.419Z,-3.47
2019-01-29T21:32:01.771Z,-3.54
2019-01-29T21:34:32.403Z,-3.59
2019-01-29T21:37:02.871Z,-3.64
2019-01-29T21:39:33.199Z,-3.64
2019-01-29T21:42:04.897Z,-3.71
2019-01-29T21:44:35.481Z,-3.64
2019-01-29T21:47:05.719Z,-3.65
2019-01-29T21:49:36.086Z,-3.64
2019-01-29T21:52:06.800Z,-3.67
2019-01-29T21:54:37.630Z,-3.65
2019-01-29T21:57:15.036Z,-3.66
2019-01-29T22:00:01.370Z,-3.70
2019-01-29T22:02:33.170Z,-3.67
2019-01-29T22:05:03.453Z,-3.75
2019-01-29T22:07:33.899Z,-3.75
2019-01-29T22:10:04.671Z,-3.77
2019-01-29T22:12:36.929Z,-3.75
2019-01-29T22:15:12.146Z,-3.85
2019-01-29T22:17:42.511Z,-3.85
2019-01-29T22:20:15.435Z,-3.84
2019-01-29T22:22:45.716Z,-3.78
2019-01-29T22:25:17.640Z,-3.84
2019-01-29T22:27:48.216Z,-3.88
2019-01-29T22:30:21.039Z,-3.87
2019-01-29T22:33:01.202Z,-3.94
2019-01-29T22:35:31.373Z,-3.97
2019-01-29T22:38:01.540Z,-4.03
2019-01-29T22:40:31.775Z,-4.05
2019-01-29T22:43:02.445Z,-4.06
2019-01-29T22:45:35.654Z,-4.06
2019-01-29T22:48:09.307Z,-4.08
2019-01-29T22:50:43.043Z,-4.07
2019-01-29T22:53:13.398Z,-4.07
2019-01-29T22:55:45.558Z,-4.08
2019-01-29T22:58:15.891Z,-4.08
2019-01-29T23:01:02.114Z,-4.08
2019-01-29T23:03:39.578Z,-4.16
2019-01-29T23:06:34.643Z,-4.16
2019-01-29T23:09:09.129Z,-4.08
2019-01-29T23:11:39.320Z,-4.11
2019-01-29T23:14:09.690Z,-4.08
2019-01-29T23:16:40.850Z,-4.06
2019-01-29T23:19:10.986Z,-4.06
2019-01-29T23:21:41.423Z,-4.07
2019-01-29T23:24:12.096Z,-4.11
2019-01-29T23:26:42.435Z,-4.08
2019-01-29T23:29:12.587Z,-4.10
2019-01-29T23:31:43.050Z,-4.19
2019-01-29T23:34:13.253Z,-4.18
2019-01-29T23:36:43.525Z,-4.17
2019-01-29T23:39:14.022Z,-4.16
2019-01-29T23:41:44.469Z,-4.23
2019-01-29T23:44:14.961Z,-4.27
2019-01-29T23:46:45.125Z,-4.45
2019-01-29T23:49:15.297Z,-4.33
2019-01-29T23:51:47.202Z,-4.01
2019-01-29T23:54:17.610Z,-4.02
2019-01-29T23:56:47.976Z,-4.01
2019-01-29T23:59:18.120Z,-4.02
